sensor_id;sensor_type;location;lat;lon;timestamp;temperature;humidity
8436;DHT22;4255;48.730;9.156;2022-09-01T00:01:04;17.20;99.90
8436;DHT22;4255;48.730;9.156;2022-09-01T00:03:33;17.20;99.90
8436;DHT22;4255;48.730;9.156;2022-09-01T00:05:59;17.10;99.90
8436;DHT22;4255;48.730;9.156;2022-09-01T00:08:25;17.10;99.90
8436;DHT22;4255;48.730;9.156;2022-09-01T00:10:50;17.20;99.90
8436;DHT22;4255;48.730;9.156;2022-09-01T00:13:16;17.10;99.90
8436;DHT22;4255;48.730;9.156;2022-09-01T00:15:42;17.10;99.90
8436;DHT22;4255;48.730;9.156;2022-09-01T00:18:08;17.10;99.90
8436;DHT22;4255;48.730;9.156;2022-09-01T00:20:35;17.10;99.90
8436;DHT22;4255;48.730;9.156;2022-09-01T00:23:01;17.00;99.90
8436;DHT22;4255;48.730;9.156;2022-09-01T00:25:27;17.00;99.90
8436;DHT22;4255;48.730;9.156;2022-09-01T00:27:53;16.90;99.90
8436;DHT22;4255;48.730;9.156;2022-09-01T00:30:23;17.00;99.90
8436;DHT22;4255;48.730;9.156;2022-09-01T00:32:49;17.00;99.90
8436;DHT22;4255;48.730;9.156;2022-09-01T00:35:16;17.00;99.90
8436;DHT22;4255;48.730;9.156;2022-09-01T00:37:42;16.80;99.90
8436;DHT22;4255;48.730;9.156;2022-09-01T00:40:09;16.90;99.90
8436;DHT22;4255;48.730;9.156;2022-09-01T00:42:37;16.80;99.90
8436;DHT22;4255;48.730;9.156;2022-09-01T00:45:05;16.90;99.90
8436;DHT22;4255;48.730;9.156;2022-09-01T00:47:31;16.90;99.90
8436;DHT22;4255;48.730;9.156;2022-09-01T00:49:57;16.90;99.90
8436;DHT22;4255;48.730;9.156;2022-09-01T00:52:45;16.90;99.90
8436;DHT22;4255;48.730;9.156;2022-09-01T00:55:17;16.80;99.90
8436;DHT22;4255;48.730;9.156;2022-09-01T00:57:43;16.80;99.90
8436;DHT22;4255;48.730;9.156;2022-09-01T01:00:17;16.90;99.90
8436;DHT22;4255;48.730;9.156;2022-09-01T01:02:43;16.90;99.90
8436;DHT22;4255;48.730;9.156;2022-09-01T01:05:11;16.90;99.90
8436;DHT22;4255;48.730;9.156;2022-09-01T01:07:36;16.90;99.90
8436;DHT22;4255;48.730;9.156;2022-09-01T01:10:11;16.90;99.90
8436;DHT22;4255;48.730;9.156;2022-09-01T01:12:38;17.00;99.90
8436;DHT22;4255;48.730;9.156;2022-09-01T01:15:06;17.00;99.90
8436;DHT22;4255;48.730;9.156;2022-09-01T01:17:33;17.00;99.90
8436;DHT22;4255;48.730;9.156;2022-09-01T01:19:59;17.00;99.90
8436;DHT22;4255;48.730;9.156;2022-09-01T01:23:20;17.00;99.90
8436;DHT22;4255;48.730;9.156;2022-09-01T01:25:58;17.00;99.90
8436;DHT22;4255;48.730;9.156;2022-09-01T01:28:32;17.00;99.90
8436;DHT22;4255;48.730;9.156;2022-09-01T01:31:01;17.00;99.90
8436;DHT22;4255;48.730;9.156;2022-09-01T01:33:35;16.90;99.90
8436;DHT22;4255;48.730;9.156;2022-09-01T01:36:09;16.90;99.90
8436;DHT22;4255;48.730;9.156;2022-09-01T01:38:38;16.80;99.90
8436;DHT22;4255;48.730;9.156;2022-09-01T01:41:06;16.80;99.90
8436;DHT22;4255;48.730;9.156;2022-09-01T01:43:31;16.80;99.90
8436;DHT22;4255;48.730;9.156;2022-09-01T01:45:58;16.80;99.90
8436;DHT22;4255;48.730;9.156;2022-09-01T01:48:28;16.80;99.90
8436;DHT22;4255;48.730;9.156;2022-09-01T01:50:54;16.80;99.90
8436;DHT22;4255;48.730;9.156;2022-09-01T01:53:22;16.80;99.90
8436;DHT22;4255;48.730;9.156;2022-09-01T01:55:48;16.80;99.90
8436;DHT22;4255;48.730;9.156;2022-09-01T01:58:16;16.80;99.90
8436;DHT22;4255;48.730;9.156;2022-09-01T02:00:45;16.70;99.90
8436;DHT22;4255;48.730;9.156;2022-09-01T02:03:11;16.70;99.90
8436;DHT22;4255;48.730;9.156;2022-09-01T02:05:48;16.70;99.90
8436;DHT22;4255;48.730;9.156;2022-09-01T02:08:15;16.60;99.90
8436;DHT22;4255;48.730;9.156;2022-09-01T02:10:49;16.40;99.90
8436;DHT22;4255;48.730;9.156;2022-09-01T02:13:17;16.20;99.90
8436;DHT22;4255;48.730;9.156;2022-09-01T02:15:49;16.10;99.90
8436;DHT22;4255;48.730;9.156;2022-09-01T02:18:27;16.00;99.90
8436;DHT22;4255;48.730;9.156;2022-09-01T02:20:55;15.90;99.90
8436;DHT22;4255;48.730;9.156;2022-09-01T02:23:23;15.80;99.90
8436;DHT22;4255;48.730;9.156;2022-09-01T02:25:53;15.90;99.90
8436;DHT22;4255;48.730;9.156;2022-09-01T02:28:20;15.90;99.90
8436;DHT22;4255;48.730;9.156;2022-09-01T02:30:49;15.90;99.90
8436;DHT22;4255;48.730;9.156;2022-09-01T02:33:25;15.90;99.90
8436;DHT22;4255;48.730;9.156;2022-09-01T02:35:54;15.90;99.90
8436;DHT22;4255;48.730;9.156;2022-09-01T02:38:20;15.90;99.90
8436;DHT22;4255;48.730;9.156;2022-09-01T02:40:51;16.00;99.90
8436;DHT22;4255;48.730;9.156;2022-09-01T02:43:19;16.00;99.90
8436;DHT22;4255;48.730;9.156;2022-09-01T02:45:49;16.10;99.90
8436;DHT22;4255;48.730;9.156;2022-09-01T02:48:20;16.00;99.90
8436;DHT22;4255;48.730;9.156;2022-09-01T02:50:49;16.00;99.90
8436;DHT22;4255;48.730;9.156;2022-09-01T02:53:15;16.00;99.90
8436;DHT22;4255;48.730;9.156;2022-09-01T02:55:41;16.00;99.90
8436;DHT22;4255;48.730;9.156;2022-09-01T02:58:08;16.00;99.90
8436;DHT22;4255;48.730;9.156;2022-09-01T03:00:41;16.00;99.90
8436;DHT22;4255;48.730;9.156;2022-09-01T03:03:08;15.90;99.90
8436;DHT22;4255;48.730;9.156;2022-09-01T03:05:35;15.90;99.90
8436;DHT22;4255;48.730;9.156;2022-09-01T03:08:06;15.90;99.90
8436;DHT22;4255;48.730;9.156;2022-09-01T03:10:36;15.90;99.90
8436;DHT22;4255;48.730;9.156;2022-09-01T03:13:04;16.00;99.90
8436;DHT22;4255;48.730;9.156;2022-09-01T03:15:31;16.00;99.90
8436;DHT22;4255;48.730;9.156;2022-09-01T03:17:59;16.00;99.90
8436;DHT22;4255;48.730;9.156;2022-09-01T03:20:26;16.00;99.90
8436;DHT22;4255;48.730;9.156;2022-09-01T03:22:52;16.00;99.90
8436;DHT22;4255;48.730;9.156;2022-09-01T03:25:18;15.90;99.90
8436;DHT22;4255;48.730;9.156;2022-09-01T03:27:44;15.90;99.90
8436;DHT22;4255;48.730;9.156;2022-09-01T03:30:10;15.90;99.90
8436;DHT22;4255;48.730;9.156;2022-09-01T03:32:37;15.90;99.90
8436;DHT22;4255;48.730;9.156;2022-09-01T03:35:02;15.90;99.90
8436;DHT22;4255;48.730;9.156;2022-09-01T03:37:29;15.80;99.90
8436;DHT22;4255;48.730;9.156;2022-09-01T03:39:54;15.70;99.90
8436;DHT22;4255;48.730;9.156;2022-09-01T03:42:21;15.70;99.90
8436;DHT22;4255;48.730;9.156;2022-09-01T03:44:50;15.80;99.90
8436;DHT22;4255;48.730;9.156;2022-09-01T03:47:18;15.80;99.90
8436;DHT22;4255;48.730;9.156;2022-09-01T03:49:46;15.80;99.90
8436;DHT22;4255;48.730;9.156;2022-09-01T03:52:13;15.80;99.90
8436;DHT22;4255;48.730;9.156;2022-09-01T03:54:40;15.80;99.90
8436;DHT22;4255;48.730;9.156;2022-09-01T03:57:05;15.80;99.90
8436;DHT22;4255;48.730;9.156;2022-09-01T03:59:34;15.80;99.90
8436;DHT22;4255;48.730;9.156;2022-09-01T04:02:00;15.70;99.90
8436;DHT22;4255;48.730;9.156;2022-09-01T04:04:27;15.70;99.90
8436;DHT22;4255;48.730;9.156;2022-09-01T04:06:55;15.60;99.90
8436;DHT22;4255;48.730;9.156;2022-09-01T04:09:21;15.70;99.90
8436;DHT22;4255;48.730;9.156;2022-09-01T04:11:47;15.70;99.90
8436;DHT22;4255;48.730;9.156;2022-09-01T04:14:13;15.70;99.90
8436;DHT22;4255;48.730;9.156;2022-09-01T04:16:39;15.70;99.90
8436;DHT22;4255;48.730;9.156;2022-09-01T04:19:25;15.80;99.90
8436;DHT22;4255;48.730;9.156;2022-09-01T04:21:54;15.80;99.90
8436;DHT22;4255;48.730;9.156;2022-09-01T04:24:21;15.90;99.90
8436;DHT22;4255;48.730;9.156;2022-09-01T04:26:49;15.90;99.90
8436;DHT22;4255;48.730;9.156;2022-09-01T04:29:16;15.90;99.90
8436;DHT22;4255;48.730;9.156;2022-09-01T04:31:53;16.00;99.90
8436;DHT22;4255;48.730;9.156;2022-09-01T04:34:20;16.00;99.90
8436;DHT22;4255;48.730;9.156;2022-09-01T04:36:47;16.00;99.90
8436;DHT22;4255;48.730;9.156;2022-09-01T04:39:13;16.00;99.90
8436;DHT22;4255;48.730;9.156;2022-09-01T04:41:41;16.00;99.90
8436;DHT22;4255;48.730;9.156;2022-09-01T04:44:08;16.00;99.90
8436;DHT22;4255;48.730;9.156;2022-09-01T04:46:38;16.00;99.90
8436;DHT22;4255;48.730;9.156;2022-09-01T04:49:07;16.00;99.90
8436;DHT22;4255;48.730;9.156;2022-09-01T04:51:41;16.00;99.90
8436;DHT22;4255;48.730;9.156;2022-09-01T04:54:08;16.00;99.90
8436;DHT22;4255;48.730;9.156;2022-09-01T04:56:39;16.00;99.90
8436;DHT22;4255;48.730;9.156;2022-09-01T04:59:05;16.00;99.90
8436;DHT22;4255;48.730;9.156;2022-09-01T05:01:33;15.90;99.90
8436;DHT22;4255;48.730;9.156;2022-09-01T05:04:11;16.00;99.90
8436;DHT22;4255;48.730;9.156;2022-09-01T05:06:43;16.10;99.90
8436;DHT22;4255;48.730;9.156;2022-09-01T05:09:11;16.30;99.90
8436;DHT22;4255;48.730;9.156;2022-09-01T05:11:38;16.40;99.90
8436;DHT22;4255;48.730;9.156;2022-09-01T05:14:04;16.50;99.90
8436;DHT22;4255;48.730;9.156;2022-09-01T05:16:32;16.60;99.90
8436;DHT22;4255;48.730;9.156;2022-09-01T05:18:58;16.80;99.90
8436;DHT22;4255;48.730;9.156;2022-09-01T05:21:26;16.90;99.90
8436;DHT22;4255;48.730;9.156;2022-09-01T05:23:55;17.00;99.90
8436;DHT22;4255;48.730;9.156;2022-09-01T05:26:24;17.00;99.90
8436;DHT22;4255;48.730;9.156;2022-09-01T05:29:02;17.10;99.90
8436;DHT22;4255;48.730;9.156;2022-09-01T05:31:29;17.10;99.90
8436;DHT22;4255;48.730;9.156;2022-09-01T05:33:59;17.20;99.90
8436;DHT22;4255;48.730;9.156;2022-09-01T05:36:27;17.20;99.90
8436;DHT22;4255;48.730;9.156;2022-09-01T05:38:56;17.30;99.90
8436;DHT22;4255;48.730;9.156;2022-09-01T05:41:22;17.40;99.90
8436;DHT22;4255;48.730;9.156;2022-09-01T05:43:49;17.50;99.90
8436;DHT22;4255;48.730;9.156;2022-09-01T05:46:19;17.60;99.90
8436;DHT22;4255;48.730;9.156;2022-09-01T05:48:47;17.60;99.90
8436;DHT22;4255;48.730;9.156;2022-09-01T05:51:15;17.70;99.90
8436;DHT22;4255;48.730;9.156;2022-09-01T05:53:42;17.70;99.90
8436;DHT22;4255;48.730;9.156;2022-09-01T05:56:09;17.60;99.90
8436;DHT22;4255;48.730;9.156;2022-09-01T05:58:38;17.50;99.90
8436;DHT22;4255;48.730;9.156;2022-09-01T06:01:05;17.60;99.90
8436;DHT22;4255;48.730;9.156;2022-09-01T06:03:32;17.70;99.90
8436;DHT22;4255;48.730;9.156;2022-09-01T06:06:04;17.60;99.90
8436;DHT22;4255;48.730;9.156;2022-09-01T06:08:33;17.60;99.90
8436;DHT22;4255;48.730;9.156;2022-09-01T06:11:00;17.60;99.90
8436;DHT22;4255;48.730;9.156;2022-09-01T06:13:28;17.40;99.90
8436;DHT22;4255;48.730;9.156;2022-09-01T06:15:54;17.30;99.90
8436;DHT22;4255;48.730;9.156;2022-09-01T06:18:22;17.40;99.90
8436;DHT22;4255;48.730;9.156;2022-09-01T06:20:48;17.50;99.90
8436;DHT22;4255;48.730;9.156;2022-09-01T06:23:15;17.60;99.90
8436;DHT22;4255;48.730;9.156;2022-09-01T06:25:42;17.80;99.90
8436;DHT22;4255;48.730;9.156;2022-09-01T06:28:15;17.80;99.90
8436;DHT22;4255;48.730;9.156;2022-09-01T06:30:41;18.00;99.90
8436;DHT22;4255;48.730;9.156;2022-09-01T06:33:10;18.10;99.90
8436;DHT22;4255;48.730;9.156;2022-09-01T06:35:42;18.30;99.90
8436;DHT22;4255;48.730;9.156;2022-09-01T06:38:10;18.10;99.90
8436;DHT22;4255;48.730;9.156;2022-09-01T06:40:36;18.30;99.90
8436;DHT22;4255;48.730;9.156;2022-09-01T06:43:04;18.40;99.90
8436;DHT22;4255;48.730;9.156;2022-09-01T06:45:37;18.40;99.90
8436;DHT22;4255;48.730;9.156;2022-09-01T06:48:05;18.60;99.90
8436;DHT22;4255;48.730;9.156;2022-09-01T06:50:31;18.70;99.90
8436;DHT22;4255;48.730;9.156;2022-09-01T06:52:57;18.90;99.90
8436;DHT22;4255;48.730;9.156;2022-09-01T06:55:36;19.00;99.90
8436;DHT22;4255;48.730;9.156;2022-09-01T06:58:07;19.00;99.90
8436;DHT22;4255;48.730;9.156;2022-09-01T07:00:37;19.20;99.90
8436;DHT22;4255;48.730;9.156;2022-09-01T07:03:13;19.20;99.90
8436;DHT22;4255;48.730;9.156;2022-09-01T07:05:40;19.10;99.90
8436;DHT22;4255;48.730;9.156;2022-09-01T07:08:09;19.20;99.90
8436;DHT22;4255;48.730;9.156;2022-09-01T07:10:43;19.30;99.90
8436;DHT22;4255;48.730;9.156;2022-09-01T07:13:14;19.20;99.90
8436;DHT22;4255;48.730;9.156;2022-09-01T07:15:43;19.10;99.90
8436;DHT22;4255;48.730;9.156;2022-09-01T07:18:09;19.00;99.90
8436;DHT22;4255;48.730;9.156;2022-09-01T07:20:40;19.00;99.90
8436;DHT22;4255;48.730;9.156;2022-09-01T07:23:07;19.00;99.90
8436;DHT22;4255;48.730;9.156;2022-09-01T07:25:36;19.20;99.90
8436;DHT22;4255;48.730;9.156;2022-09-01T07:28:04;19.40;99.90
8436;DHT22;4255;48.730;9.156;2022-09-01T07:30:30;19.50;99.90
8436;DHT22;4255;48.730;9.156;2022-09-01T07:32:57;19.70;99.90
8436;DHT22;4255;48.730;9.156;2022-09-01T07:35:23;19.80;99.90
8436;DHT22;4255;48.730;9.156;2022-09-01T07:37:49;19.70;99.90
8436;DHT22;4255;48.730;9.156;2022-09-01T07:40:18;19.80;99.90
8436;DHT22;4255;48.730;9.156;2022-09-01T07:42:47;19.80;99.90
8436;DHT22;4255;48.730;9.156;2022-09-01T07:45:14;19.90;99.90
8436;DHT22;4255;48.730;9.156;2022-09-01T07:47:42;20.10;99.90
8436;DHT22;4255;48.730;9.156;2022-09-01T07:50:10;20.30;99.90
8436;DHT22;4255;48.730;9.156;2022-09-01T07:52:38;20.30;99.90
8436;DHT22;4255;48.730;9.156;2022-09-01T07:55:12;20.50;99.90
8436;DHT22;4255;48.730;9.156;2022-09-01T07:57:43;20.60;99.90
8436;DHT22;4255;48.730;9.156;2022-09-01T08:00:12;20.50;99.90
8436;DHT22;4255;48.730;9.156;2022-09-01T08:02:38;20.50;99.90
8436;DHT22;4255;48.730;9.156;2022-09-01T08:05:08;20.30;99.90
8436;DHT22;4255;48.730;9.156;2022-09-01T08:07:37;20.30;99.90
8436;DHT22;4255;48.730;9.156;2022-09-01T08:10:05;20.40;99.90
8436;DHT22;4255;48.730;9.156;2022-09-01T08:12:31;20.20;99.90
8436;DHT22;4255;48.730;9.156;2022-09-01T08:14:57;20.20;99.90
8436;DHT22;4255;48.730;9.156;2022-09-01T08:17:22;20.10;99.90
8436;DHT22;4255;48.730;9.156;2022-09-01T08:19:48;20.00;99.90
8436;DHT22;4255;48.730;9.156;2022-09-01T08:22:14;20.00;99.90
8436;DHT22;4255;48.730;9.156;2022-09-01T08:24:41;19.90;99.90
8436;DHT22;4255;48.730;9.156;2022-09-01T08:27:06;20.10;99.90
8436;DHT22;4255;48.730;9.156;2022-09-01T08:29:32;20.30;99.90
8436;DHT22;4255;48.730;9.156;2022-09-01T08:31:58;20.50;99.90
8436;DHT22;4255;48.730;9.156;2022-09-01T08:34:27;20.70;99.90
8436;DHT22;4255;48.730;9.156;2022-09-01T08:36:52;20.60;99.90
8436;DHT22;4255;48.730;9.156;2022-09-01T08:39:18;20.40;99.90
8436;DHT22;4255;48.730;9.156;2022-09-01T08:41:55;20.10;99.90
8436;DHT22;4255;48.730;9.156;2022-09-01T08:47:10;19.70;99.90
8436;DHT22;4255;48.730;9.156;2022-09-01T08:49:37;19.90;99.90
8436;DHT22;4255;48.730;9.156;2022-09-01T08:57:50;20.20;99.90
8436;DHT22;4255;48.730;9.156;2022-09-01T09:00:18;20.30;99.90
8436;DHT22;4255;48.730;9.156;2022-09-01T09:03:15;20.60;99.90
8436;DHT22;4255;48.730;9.156;2022-09-01T09:14:13;21.00;99.90
8436;DHT22;4255;48.730;9.156;2022-09-01T09:16:49;21.20;99.90
8436;DHT22;4255;48.730;9.156;2022-09-01T09:19:39;21.10;99.90
8436;DHT22;4255;48.730;9.156;2022-09-01T09:22:08;21.20;99.90
8436;DHT22;4255;48.730;9.156;2022-09-01T09:24:49;21.00;99.90
8436;DHT22;4255;48.730;9.156;2022-09-01T09:27:54;21.20;99.90
8436;DHT22;4255;48.730;9.156;2022-09-01T09:30:25;21.50;99.90
8436;DHT22;4255;48.730;9.156;2022-09-01T09:32:58;21.70;99.90
8436;DHT22;4255;48.730;9.156;2022-09-01T09:35:40;21.80;99.90
8436;DHT22;4255;48.730;9.156;2022-09-01T09:41:16;21.80;99.90
8436;DHT22;4255;48.730;9.156;2022-09-01T09:46:23;21.70;99.90
8436;DHT22;4255;48.730;9.156;2022-09-01T09:51:30;21.90;99.90
8436;DHT22;4255;48.730;9.156;2022-09-01T09:59:43;22.00;99.90
8436;DHT22;4255;48.730;9.156;2022-09-01T10:02:30;21.90;99.90
8436;DHT22;4255;48.730;9.156;2022-09-01T10:05:01;22.00;99.90
8436;DHT22;4255;48.730;9.156;2022-09-01T10:07:42;21.90;99.90
8436;DHT22;4255;48.730;9.156;2022-09-01T10:10:44;21.90;99.90
8436;DHT22;4255;48.730;9.156;2022-09-01T10:13:16;22.10;99.90
8436;DHT22;4255;48.730;9.156;2022-09-01T10:15:48;22.40;99.90
8436;DHT22;4255;48.730;9.156;2022-09-01T10:18:17;22.60;99.90
8436;DHT22;4255;48.730;9.156;2022-09-01T10:21:12;22.60;99.90
8436;DHT22;4255;48.730;9.156;2022-09-01T10:23:39;22.70;99.90
8436;DHT22;4255;48.730;9.156;2022-09-01T10:26:21;22.70;99.90
8436;DHT22;4255;48.730;9.156;2022-09-01T10:28:58;22.60;99.90
8436;DHT22;4255;48.730;9.156;2022-09-01T10:31:26;22.80;99.90
8436;DHT22;4255;48.730;9.156;2022-09-01T10:33:52;22.80;99.90
8436;DHT22;4255;48.730;9.156;2022-09-01T10:36:18;22.70;99.90
8436;DHT22;4255;48.730;9.156;2022-09-01T10:38:45;22.70;99.90
8436;DHT22;4255;48.730;9.156;2022-09-01T10:44:33;22.90;99.90
8436;DHT22;4255;48.730;9.156;2022-09-01T10:47:24;22.70;99.90
8436;DHT22;4255;48.730;9.156;2022-09-01T10:55:16;23.00;99.90
8436;DHT22;4255;48.730;9.156;2022-09-01T11:13:49;22.90;99.90
8436;DHT22;4255;48.730;9.156;2022-09-01T11:19:27;23.30;99.90
8436;DHT22;4255;48.730;9.156;2022-09-01T11:30:19;23.70;99.90
8436;DHT22;4255;48.730;9.156;2022-09-01T11:32:49;23.40;99.90
8436;DHT22;4255;48.730;9.156;2022-09-01T11:35:19;23.30;99.90
8436;DHT22;4255;48.730;9.156;2022-09-01T11:37:49;23.40;99.90
8436;DHT22;4255;48.730;9.156;2022-09-01T11:40:26;23.30;99.90
8436;DHT22;4255;48.730;9.156;2022-09-01T11:42:53;23.40;99.90
8436;DHT22;4255;48.730;9.156;2022-09-01T11:45:24;23.20;99.90
8436;DHT22;4255;48.730;9.156;2022-09-01T11:47:56;23.40;99.90
8436;DHT22;4255;48.730;9.156;2022-09-01T11:50:34;23.40;99.90
8436;DHT22;4255;48.730;9.156;2022-09-01T11:53:06;23.50;99.90
8436;DHT22;4255;48.730;9.156;2022-09-01T11:55:34;23.20;99.90
8436;DHT22;4255;48.730;9.156;2022-09-01T11:58:01;22.80;99.90
8436;DHT22;4255;48.730;9.156;2022-09-01T12:00:33;22.70;99.90
8436;DHT22;4255;48.730;9.156;2022-09-01T12:03:26;22.90;99.90
8436;DHT22;4255;48.730;9.156;2022-09-01T12:05:58;22.80;99.90
8436;DHT22;4255;48.730;9.156;2022-09-01T12:08:29;22.80;99.90
8436;DHT22;4255;48.730;9.156;2022-09-01T12:11:04;23.10;99.90
8436;DHT22;4255;48.730;9.156;2022-09-01T12:13:30;23.10;99.90
8436;DHT22;4255;48.730;9.156;2022-09-01T12:16:02;23.30;99.90
8436;DHT22;4255;48.730;9.156;2022-09-01T12:18:30;23.40;99.90
8436;DHT22;4255;48.730;9.156;2022-09-01T12:20:58;23.60;99.90
8436;DHT22;4255;48.730;9.156;2022-09-01T12:23:28;23.70;99.90
8436;DHT22;4255;48.730;9.156;2022-09-01T12:25:57;23.90;99.90
8436;DHT22;4255;48.730;9.156;2022-09-01T12:28:25;24.40;99.90
8436;DHT22;4255;48.730;9.156;2022-09-01T12:30:51;24.40;99.90
8436;DHT22;4255;48.730;9.156;2022-09-01T12:33:20;24.40;99.90
8436;DHT22;4255;48.730;9.156;2022-09-01T12:35:46;24.60;99.90
8436;DHT22;4255;48.730;9.156;2022-09-01T12:38:30;24.40;99.90
8436;DHT22;4255;48.730;9.156;2022-09-01T12:40:56;24.20;99.90
8436;DHT22;4255;48.730;9.156;2022-09-01T12:43:33;23.90;99.90
8436;DHT22;4255;48.730;9.156;2022-09-01T12:45:59;23.80;99.90
8436;DHT22;4255;48.730;9.156;2022-09-01T12:48:30;23.90;99.90
8436;DHT22;4255;48.730;9.156;2022-09-01T12:51:00;24.00;99.90
8436;DHT22;4255;48.730;9.156;2022-09-01T12:53:29;24.10;99.90
8436;DHT22;4255;48.730;9.156;2022-09-01T12:58:26;23.50;99.90
8436;DHT22;4255;48.730;9.156;2022-09-01T13:01:01;23.10;99.90
8436;DHT22;4255;48.730;9.156;2022-09-01T13:03:30;22.70;99.90
8436;DHT22;4255;48.730;9.156;2022-09-01T13:05:58;22.50;99.90
8436;DHT22;4255;48.730;9.156;2022-09-01T13:08:27;22.60;99.90
8436;DHT22;4255;48.730;9.156;2022-09-01T13:13:27;22.50;99.90
8436;DHT22;4255;48.730;9.156;2022-09-01T13:15:56;22.50;99.90
8436;DHT22;4255;48.730;9.156;2022-09-01T13:18:25;22.60;99.90
8436;DHT22;4255;48.730;9.156;2022-09-01T13:20:52;22.50;99.90
8436;DHT22;4255;48.730;9.156;2022-09-01T13:23:18;22.50;99.90
8436;DHT22;4255;48.730;9.156;2022-09-01T13:25:45;22.70;99.90
8436;DHT22;4255;48.730;9.156;2022-09-01T13:28:12;22.70;99.90
8436;DHT22;4255;48.730;9.156;2022-09-01T13:30:38;23.10;99.90
8436;DHT22;4255;48.730;9.156;2022-09-01T13:33:04;23.50;99.90
8436;DHT22;4255;48.730;9.156;2022-09-01T13:35:30;23.90;99.90
8436;DHT22;4255;48.730;9.156;2022-09-01T13:37:55;24.00;99.90
8436;DHT22;4255;48.730;9.156;2022-09-01T13:40:21;23.90;99.90
8436;DHT22;4255;48.730;9.156;2022-09-01T13:42:50;24.00;99.90
8436;DHT22;4255;48.730;9.156;2022-09-01T13:45:18;24.30;99.90
8436;DHT22;4255;48.730;9.156;2022-09-01T13:47:46;24.50;99.90
8436;DHT22;4255;48.730;9.156;2022-09-01T13:50:14;24.80;99.90
8436;DHT22;4255;48.730;9.156;2022-09-01T13:52:42;24.80;99.90
8436;DHT22;4255;48.730;9.156;2022-09-01T13:55:30;24.70;99.90
8436;DHT22;4255;48.730;9.156;2022-09-01T13:57:56;24.90;99.90
8436;DHT22;4255;48.730;9.156;2022-09-01T14:00:26;25.40;99.90
8436;DHT22;4255;48.730;9.156;2022-09-01T14:02:55;25.30;99.90
8436;DHT22;4255;48.730;9.156;2022-09-01T14:05:22;25.30;99.90
8436;DHT22;4255;48.730;9.156;2022-09-01T14:07:48;25.60;99.90
8436;DHT22;4255;48.730;9.156;2022-09-01T14:10:15;25.70;99.90
8436;DHT22;4255;48.730;9.156;2022-09-01T14:12:42;25.60;99.90
8436;DHT22;4255;48.730;9.156;2022-09-01T14:15:09;25.30;99.90
8436;DHT22;4255;48.730;9.156;2022-09-01T14:17:36;25.40;99.90
8436;DHT22;4255;48.730;9.156;2022-09-01T14:20:06;25.40;99.90
8436;DHT22;4255;48.730;9.156;2022-09-01T14:22:33;25.50;99.90
8436;DHT22;4255;48.730;9.156;2022-09-01T14:24:59;25.50;99.90
8436;DHT22;4255;48.730;9.156;2022-09-01T14:27:25;25.30;99.90
8436;DHT22;4255;48.730;9.156;2022-09-01T14:29:51;25.10;99.90
8436;DHT22;4255;48.730;9.156;2022-09-01T14:32:18;25.00;99.90
8436;DHT22;4255;48.730;9.156;2022-09-01T14:34:47;24.90;99.90
8436;DHT22;4255;48.730;9.156;2022-09-01T14:37:15;24.80;99.90
8436;DHT22;4255;48.730;9.156;2022-09-01T14:39:41;24.60;99.90
8436;DHT22;4255;48.730;9.156;2022-09-01T14:42:06;24.70;99.90
8436;DHT22;4255;48.730;9.156;2022-09-01T14:44:37;24.60;99.90
8436;DHT22;4255;48.730;9.156;2022-09-01T14:47:04;24.40;99.90
8436;DHT22;4255;48.730;9.156;2022-09-01T14:49:32;24.30;99.90
8436;DHT22;4255;48.730;9.156;2022-09-01T14:52:02;24.30;99.90
8436;DHT22;4255;48.730;9.156;2022-09-01T14:54:30;24.30;99.90
8436;DHT22;4255;48.730;9.156;2022-09-01T14:56:55;24.60;99.90
8436;DHT22;4255;48.730;9.156;2022-09-01T14:59:21;24.70;99.90
8436;DHT22;4255;48.730;9.156;2022-09-01T15:01:47;24.80;99.90
8436;DHT22;4255;48.730;9.156;2022-09-01T15:04:13;24.80;99.90
8436;DHT22;4255;48.730;9.156;2022-09-01T15:06:38;24.70;99.90
8436;DHT22;4255;48.730;9.156;2022-09-01T15:09:04;24.90;99.90
8436;DHT22;4255;48.730;9.156;2022-09-01T15:11:30;25.10;99.90
8436;DHT22;4255;48.730;9.156;2022-09-01T15:13:55;25.30;99.90
8436;DHT22;4255;48.730;9.156;2022-09-01T15:16:24;25.20;99.90
8436;DHT22;4255;48.730;9.156;2022-09-01T15:18:50;25.10;99.90
8436;DHT22;4255;48.730;9.156;2022-09-01T15:21:18;24.90;99.90
8436;DHT22;4255;48.730;9.156;2022-09-01T15:23:44;24.80;99.90
8436;DHT22;4255;48.730;9.156;2022-09-01T15:26:10;24.80;99.90
8436;DHT22;4255;48.730;9.156;2022-09-01T15:28:35;24.70;99.90
8436;DHT22;4255;48.730;9.156;2022-09-01T15:31:01;24.70;99.90
8436;DHT22;4255;48.730;9.156;2022-09-01T15:33:27;24.50;99.90
8436;DHT22;4255;48.730;9.156;2022-09-01T15:35:53;24.50;99.90
8436;DHT22;4255;48.730;9.156;2022-09-01T15:38:18;24.50;99.90
8436;DHT22;4255;48.730;9.156;2022-09-01T15:40:45;24.60;99.90
8436;DHT22;4255;48.730;9.156;2022-09-01T15:43:11;24.50;99.90
8436;DHT22;4255;48.730;9.156;2022-09-01T15:45:37;24.40;99.90
8436;DHT22;4255;48.730;9.156;2022-09-01T15:48:03;24.60;99.90
8436;DHT22;4255;48.730;9.156;2022-09-01T15:50:29;24.50;99.90
8436;DHT22;4255;48.730;9.156;2022-09-01T15:52:59;24.70;99.90
8436;DHT22;4255;48.730;9.156;2022-09-01T15:55:36;24.70;99.90
8436;DHT22;4255;48.730;9.156;2022-09-01T15:58:02;24.70;99.90
8436;DHT22;4255;48.730;9.156;2022-09-01T16:00:28;24.60;99.90
8436;DHT22;4255;48.730;9.156;2022-09-01T16:02:55;24.70;99.90
8436;DHT22;4255;48.730;9.156;2022-09-01T16:05:23;24.80;99.90
8436;DHT22;4255;48.730;9.156;2022-09-01T16:07:50;24.90;99.90
8436;DHT22;4255;48.730;9.156;2022-09-01T16:10:16;25.10;99.90
8436;DHT22;4255;48.730;9.156;2022-09-01T16:12:43;25.10;99.90
8436;DHT22;4255;48.730;9.156;2022-09-01T16:15:15;25.00;99.90
8436;DHT22;4255;48.730;9.156;2022-09-01T16:20:35;24.80;99.90
8436;DHT22;4255;48.730;9.156;2022-09-01T16:23:18;24.80;99.90
8436;DHT22;4255;48.730;9.156;2022-09-01T16:25:45;24.90;99.90
8436;DHT22;4255;48.730;9.156;2022-09-01T16:28:24;24.80;99.90
8436;DHT22;4255;48.730;9.156;2022-09-01T16:30:55;24.50;99.90
8436;DHT22;4255;48.730;9.156;2022-09-01T16:33:22;24.30;99.90
8436;DHT22;4255;48.730;9.156;2022-09-01T16:38:38;24.30;99.90
8436;DHT22;4255;48.730;9.156;2022-09-01T16:41:40;24.50;99.90
8436;DHT22;4255;48.730;9.156;2022-09-01T16:44:22;24.70;99.90
8436;DHT22;4255;48.730;9.156;2022-09-01T16:49:51;25.00;99.90
8436;DHT22;4255;48.730;9.156;2022-09-01T16:52:28;25.20;99.90
8436;DHT22;4255;48.730;9.156;2022-09-01T16:57:58;25.10;99.90
8436;DHT22;4255;48.730;9.156;2022-09-01T17:01:04;25.10;99.90
8436;DHT22;4255;48.730;9.156;2022-09-01T17:03:35;24.90;99.90
8436;DHT22;4255;48.730;9.156;2022-09-01T17:06:14;25.00;99.90
8436;DHT22;4255;48.730;9.156;2022-09-01T17:09:11;25.10;99.90
8436;DHT22;4255;48.730;9.156;2022-09-01T17:11:48;25.40;99.90
8436;DHT22;4255;48.730;9.156;2022-09-01T17:14:22;25.40;99.90
8436;DHT22;4255;48.730;9.156;2022-09-01T17:16:57;25.40;99.90
8436;DHT22;4255;48.730;9.156;2022-09-01T17:19:26;25.60;99.90
8436;DHT22;4255;48.730;9.156;2022-09-01T17:22:02;25.50;99.90
8436;DHT22;4255;48.730;9.156;2022-09-01T17:24:38;25.30;99.90
8436;DHT22;4255;48.730;9.156;2022-09-01T17:27:24;24.90;99.90
8436;DHT22;4255;48.730;9.156;2022-09-01T17:29:52;24.60;99.90
8436;DHT22;4255;48.730;9.156;2022-09-01T17:38:06;23.70;99.90
8436;DHT22;4255;48.730;9.156;2022-09-01T17:43:25;23.30;99.90
8436;DHT22;4255;48.730;9.156;2022-09-01T17:46:10;23.00;99.90
8436;DHT22;4255;48.730;9.156;2022-09-01T17:59:23;22.00;99.90
8436;DHT22;4255;48.730;9.156;2022-09-01T18:10:46;21.70;99.90